Fay, OK (73646)

1:52 PM CDT on March 31, 2015 (GMT -0500)
Watonga | | Change Station
CLOSE
Current Station
Airport
Location: Watonga,
Elevation: 1549 ft
Nearby Weather Stations

Elev 1549 ft 35.86 °N, 98.42 °W | Updated 17 minutes ago

Clear
Clear
80 °F
Feels Like 80 °F
N
8
Wind Variable Wind from East

Today
High -- | Low -- °F
--% Chance of Precip.
Yesterday
High -- | Low -- °F
Precip. -- in
7:22 AM 7:55 PM
Waxing Gibbous, 88% visible
Pressure 29.96 in
Visibility 10.0 miles
Clouds Clear
Dew Point 54 °F
Humidity 41%
Rainfall 0.00 in
Snow Depth Not available.
UV 10 out of 12
Pollen 10.50 out of 12
Air Quality Not available.
Flu Activity Not available.
METAR KJWG 311835Z AUTO 08007KT 10SM CLR 26/12 A2996 RMK AO2 T02640121

More Conditions Fewer Conditions

Pressure 29.96 in
Visibility 10.0 miles
Clouds Clear
Dew Point 54 °F
Humidity 41%
Rainfall 0.00 in
Snow Depth Not available.
UV 10 out of 12
Pollen 10.50 out of 12
Air Quality Not available.
Flu Activity Not available.
METAR KJWG 311835Z AUTO 08007KT 10SM CLR 26/12 A2996 RMK AO2 T02640121

More Conditions Fewer Conditions

10-Day Weather Forecast

Almanac

Astronomy

Mar. 31, 2015 Rise Set
Actual Time
Civil Twilight
Nautical Twilight
Astronomical Twilight
Moon
Length of Visible Light
Length of Day
Tomorrow will be .
, % of the Moon is Illuminated

Today's Extremes

State Highs State Lows

Community

WunderPhotos

Upload Photos

1,809,792 photos uploaded!

WunderBlogs® & News

Nearby

Air Quality

  Air Quality AQ Index Pollutant
Not available.

Snow Depth

Station Depth Elevation

Earthquake Activity

City Distance Mag. Time & Date
Minimum magnitude displayed is 2.5.

Coastal Water Temperatures

Place Temperature

Stations

Nearby Weather Stations

Station Location Temp. Windchill Dew Point Humidity Wind Precip. Elev Updated Type